Terminal Aerodrome Forecast
Issued by NWS

Home | Current Version | Previous Version | Text Only | Print | Product List | Glossary On
Versions: 1 2 3 4 5 6 7 8 9 10 11 12 13 14 15 16 17 18 19 20 21 22 23 24 25 26 27 28 29
464
FTUS46 KMTR 220151 AAC
TAFSFO
TAF AMD
KSFO 220151Z 2202/2306 26012KT P6SM -SHRA SCT020 BKN040
     FM220400 26012KT P6SM SCT020 BKN080
     FM220800 29008KT P6SM SCT030
     FM221900 30011KT P6SM SCT040
     FM222200 28016KT P6SM SCT050=

USA.gov is the U.S. government's official web portal to all federal, state and local government web resources and services.